sensor_id;sensor_type;location;lat;lon;timestamp;P1;durP1;ratioP1;P2;durP2;ratioP2
11541;SDS011;5827;49.482;7.716;2023-04-01T00:01:09;3.13;;;1.37;;
11541;SDS011;5827;49.482;7.716;2023-04-01T00:03:13;3.97;;;1.43;;
11541;SDS011;5827;49.482;7.716;2023-04-01T00:05:15;5.30;;;1.50;;
11541;SDS011;5827;49.482;7.716;2023-04-01T00:07:17;5.57;;;2.17;;
11541;SDS011;5827;49.482;7.716;2023-04-01T00:09:18;3.57;;;1.70;;
11541;SDS011;5827;49.482;7.716;2023-04-01T00:11:20;5.80;;;1.70;;
11541;SDS011;5827;49.482;7.716;2023-04-01T00:13:23;4.53;;;1.93;;
11541;SDS011;5827;49.482;7.716;2023-04-01T00:15:26;3.97;;;1.70;;
11541;SDS011;5827;49.482;7.716;2023-04-01T00:17:28;5.20;;;1.57;;
11541;SDS011;5827;49.482;7.716;2023-04-01T00:19:29;3.63;;;1.60;;
11541;SDS011;5827;49.482;7.716;2023-04-01T00:21:32;5.70;;;1.80;;
11541;SDS011;5827;49.482;7.716;2023-04-01T00:23:33;2.93;;;1.40;;
11541;SDS011;5827;49.482;7.716;2023-04-01T00:25:35;3.50;;;1.77;;
11541;SDS011;5827;49.482;7.716;2023-04-01T00:27:37;7.93;;;1.97;;
11541;SDS011;5827;49.482;7.716;2023-04-01T00:29:42;3.83;;;1.23;;
11541;SDS011;5827;49.482;7.716;2023-04-01T00:31:44;5.70;;;1.77;;
11541;SDS011;5827;49.482;7.716;2023-04-01T00:33:45;3.43;;;1.30;;
11541;SDS011;5827;49.482;7.716;2023-04-01T00:35:47;5.77;;;1.53;;
11541;SDS011;5827;49.482;7.716;2023-04-01T00:37:50;2.37;;;1.50;;
11541;SDS011;5827;49.482;7.716;2023-04-01T00:39:51;5.07;;;1.80;;
11541;SDS011;5827;49.482;7.716;2023-04-01T00:41:53;5.13;;;1.87;;
11541;SDS011;5827;49.482;7.716;2023-04-01T00:46:20;5.70;;;1.70;;
11541;SDS011;5827;49.482;7.716;2023-04-01T00:48:22;4.37;;;1.77;;
11541;SDS011;5827;49.482;7.716;2023-04-01T00:50:26;5.87;;;2.20;;
11541;SDS011;5827;49.482;7.716;2023-04-01T00:52:29;5.63;;;1.73;;
11541;SDS011;5827;49.482;7.716;2023-04-01T00:54:31;3.07;;;1.40;;
11541;SDS011;5827;49.482;7.716;2023-04-01T00:56:33;6.60;;;1.57;;
11541;SDS011;5827;49.482;7.716;2023-04-01T00:58:40;5.23;;;1.70;;
11541;SDS011;5827;49.482;7.716;2023-04-01T01:00:44;4.03;;;1.47;;
11541;SDS011;5827;49.482;7.716;2023-04-01T01:02:49;6.70;;;2.00;;
11541;SDS011;5827;49.482;7.716;2023-04-01T01:04:52;4.10;;;1.67;;
11541;SDS011;5827;49.482;7.716;2023-04-01T01:06:56;3.73;;;1.43;;
11541;SDS011;5827;49.482;7.716;2023-04-01T01:09:13;7.30;;;2.07;;
11541;SDS011;5827;49.482;7.716;2023-04-01T01:11:25;5.00;;;1.80;;
11541;SDS011;5827;49.482;7.716;2023-04-01T01:13:36;5.60;;;1.77;;
11541;SDS011;5827;49.482;7.716;2023-04-01T01:15:45;6.27;;;1.80;;
11541;SDS011;5827;49.482;7.716;2023-04-01T01:17:52;6.33;;;1.80;;
11541;SDS011;5827;49.482;7.716;2023-04-01T01:22:41;5.70;;;1.87;;
11541;SDS011;5827;49.482;7.716;2023-04-01T01:25:02;5.23;;;1.77;;
11541;SDS011;5827;49.482;7.716;2023-04-01T01:27:16;5.23;;;1.83;;
11541;SDS011;5827;49.482;7.716;2023-04-01T01:32:07;5.23;;;1.93;;
11541;SDS011;5827;49.482;7.716;2023-04-01T01:34:19;5.87;;;1.67;;
11541;SDS011;5827;49.482;7.716;2023-04-01T01:36:31;4.67;;;1.63;;
11541;SDS011;5827;49.482;7.716;2023-04-01T01:38:34;4.43;;;1.47;;
11541;SDS011;5827;49.482;7.716;2023-04-01T01:40:36;4.87;;;1.60;;
11541;SDS011;5827;49.482;7.716;2023-04-01T01:42:43;4.53;;;1.90;;
11541;SDS011;5827;49.482;7.716;2023-04-01T01:44:48;5.90;;;1.43;;
11541;SDS011;5827;49.482;7.716;2023-04-01T01:46:51;5.83;;;1.83;;
11541;SDS011;5827;49.482;7.716;2023-04-01T01:48:53;5.03;;;1.70;;
11541;SDS011;5827;49.482;7.716;2023-04-01T01:50:56;4.60;;;1.57;;
11541;SDS011;5827;49.482;7.716;2023-04-01T01:53:03;7.10;;;1.87;;
11541;SDS011;5827;49.482;7.716;2023-04-01T01:57:28;6.97;;;2.03;;
11541;SDS011;5827;49.482;7.716;2023-04-01T01:59:34;5.97;;;1.93;;
11541;SDS011;5827;49.482;7.716;2023-04-01T02:01:39;5.27;;;2.00;;
11541;SDS011;5827;49.482;7.716;2023-04-01T02:03:44;5.47;;;1.70;;
11541;SDS011;5827;49.482;7.716;2023-04-01T02:05:47;4.40;;;1.60;;
11541;SDS011;5827;49.482;7.716;2023-04-01T02:07:49;7.50;;;1.90;;
11541;SDS011;5827;49.482;7.716;2023-04-01T02:09:59;6.73;;;1.83;;
11541;SDS011;5827;49.482;7.716;2023-04-01T02:12:02;5.67;;;1.77;;
11541;SDS011;5827;49.482;7.716;2023-04-01T02:14:07;5.40;;;1.83;;
11541;SDS011;5827;49.482;7.716;2023-04-01T02:16:13;5.57;;;1.83;;
11541;SDS011;5827;49.482;7.716;2023-04-01T02:18:20;5.17;;;1.87;;
11541;SDS011;5827;49.482;7.716;2023-04-01T02:20:23;5.13;;;1.90;;
11541;SDS011;5827;49.482;7.716;2023-04-01T02:22:25;6.97;;;1.93;;
11541;SDS011;5827;49.482;7.716;2023-04-01T02:24:30;7.50;;;2.00;;
11541;SDS011;5827;49.482;7.716;2023-04-01T02:26:36;7.30;;;1.80;;
11541;SDS011;5827;49.482;7.716;2023-04-01T02:28:38;9.70;;;2.10;;
11541;SDS011;5827;49.482;7.716;2023-04-01T02:30:41;6.80;;;2.13;;
11541;SDS011;5827;49.482;7.716;2023-04-01T02:32:45;9.97;;;2.47;;
11541;SDS011;5827;49.482;7.716;2023-04-01T02:34:48;4.20;;;1.80;;
11541;SDS011;5827;49.482;7.716;2023-04-01T02:36:50;10.10;;;2.10;;
11541;SDS011;5827;49.482;7.716;2023-04-01T02:38:53;7.63;;;1.90;;
11541;SDS011;5827;49.482;7.716;2023-04-01T02:40:59;6.53;;;1.70;;
11541;SDS011;5827;49.482;7.716;2023-04-01T02:43:03;5.20;;;1.70;;
11541;SDS011;5827;49.482;7.716;2023-04-01T02:45:05;5.47;;;2.00;;
11541;SDS011;5827;49.482;7.716;2023-04-01T02:47:07;5.83;;;1.73;;
11541;SDS011;5827;49.482;7.716;2023-04-01T02:49:09;5.40;;;1.73;;
11541;SDS011;5827;49.482;7.716;2023-04-01T02:51:10;5.10;;;1.70;;
11541;SDS011;5827;49.482;7.716;2023-04-01T02:53:12;7.00;;;1.93;;
11541;SDS011;5827;49.482;7.716;2023-04-01T02:55:13;4.00;;;1.90;;
11541;SDS011;5827;49.482;7.716;2023-04-01T02:57:15;6.47;;;1.80;;
11541;SDS011;5827;49.482;7.716;2023-04-01T02:59:17;7.93;;;1.97;;
11541;SDS011;5827;49.482;7.716;2023-04-01T03:01:19;5.90;;;1.70;;
11541;SDS011;5827;49.482;7.716;2023-04-01T03:03:21;5.53;;;1.90;;
11541;SDS011;5827;49.482;7.716;2023-04-01T03:05:23;7.03;;;1.97;;
11541;SDS011;5827;49.482;7.716;2023-04-01T03:07:24;5.83;;;1.90;;
11541;SDS011;5827;49.482;7.716;2023-04-01T03:09:26;5.10;;;1.90;;
11541;SDS011;5827;49.482;7.716;2023-04-01T03:11:28;4.50;;;1.53;;
11541;SDS011;5827;49.482;7.716;2023-04-01T03:13:30;8.50;;;2.10;;
11541;SDS011;5827;49.482;7.716;2023-04-01T03:15:33;5.13;;;1.90;;
11541;SDS011;5827;49.482;7.716;2023-04-01T03:17:34;6.17;;;2.10;;
11541;SDS011;5827;49.482;7.716;2023-04-01T03:19:35;8.17;;;1.93;;
11541;SDS011;5827;49.482;7.716;2023-04-01T03:21:37;5.70;;;1.90;;
11541;SDS011;5827;49.482;7.716;2023-04-01T03:23:39;6.73;;;1.97;;
11541;SDS011;5827;49.482;7.716;2023-04-01T03:25:40;5.67;;;1.93;;
11541;SDS011;5827;49.482;7.716;2023-04-01T03:27:42;3.73;;;1.50;;
11541;SDS011;5827;49.482;7.716;2023-04-01T03:29:43;7.47;;;2.07;;
11541;SDS011;5827;49.482;7.716;2023-04-01T03:31:46;5.47;;;2.10;;
11541;SDS011;5827;49.482;7.716;2023-04-01T03:33:48;4.97;;;1.67;;
11541;SDS011;5827;49.482;7.716;2023-04-01T03:35:49;4.10;;;1.77;;
11541;SDS011;5827;49.482;7.716;2023-04-01T03:37:52;3.50;;;1.70;;
11541;SDS011;5827;49.482;7.716;2023-04-01T03:39:54;6.93;;;2.10;;
11541;SDS011;5827;49.482;7.716;2023-04-01T03:41:55;5.07;;;1.90;;
11541;SDS011;5827;49.482;7.716;2023-04-01T03:43:57;5.27;;;2.00;;
11541;SDS011;5827;49.482;7.716;2023-04-01T03:45:58;4.97;;;1.87;;
11541;SDS011;5827;49.482;7.716;2023-04-01T03:48:01;5.70;;;1.93;;
11541;SDS011;5827;49.482;7.716;2023-04-01T03:50:03;5.77;;;2.00;;
11541;SDS011;5827;49.482;7.716;2023-04-01T03:52:07;3.50;;;1.80;;
11541;SDS011;5827;49.482;7.716;2023-04-01T03:54:10;8.63;;;1.77;;
11541;SDS011;5827;49.482;7.716;2023-04-01T03:56:12;3.83;;;1.70;;
11541;SDS011;5827;49.482;7.716;2023-04-01T03:58:14;5.70;;;1.90;;
11541;SDS011;5827;49.482;7.716;2023-04-01T04:00:15;4.37;;;1.70;;
11541;SDS011;5827;49.482;7.716;2023-04-01T04:02:17;5.43;;;1.53;;
11541;SDS011;5827;49.482;7.716;2023-04-01T04:04:20;6.17;;;2.00;;
11541;SDS011;5827;49.482;7.716;2023-04-01T04:06:22;5.33;;;1.73;;
11541;SDS011;5827;49.482;7.716;2023-04-01T04:08:24;4.93;;;1.70;;
11541;SDS011;5827;49.482;7.716;2023-04-01T04:10:26;7.27;;;2.17;;
11541;SDS011;5827;49.482;7.716;2023-04-01T04:12:29;5.90;;;2.03;;
11541;SDS011;5827;49.482;7.716;2023-04-01T04:14:30;7.53;;;1.87;;
11541;SDS011;5827;49.482;7.716;2023-04-01T04:16:32;4.60;;;1.70;;
11541;SDS011;5827;49.482;7.716;2023-04-01T04:18:36;8.20;;;2.07;;
11541;SDS011;5827;49.482;7.716;2023-04-01T04:20:44;4.30;;;1.70;;
11541;SDS011;5827;49.482;7.716;2023-04-01T04:22:47;4.03;;;1.80;;
11541;SDS011;5827;49.482;7.716;2023-04-01T04:24:48;6.93;;;2.30;;
11541;SDS011;5827;49.482;7.716;2023-04-01T04:26:50;3.13;;;1.73;;
11541;SDS011;5827;49.482;7.716;2023-04-01T04:28:51;5.07;;;2.07;;
11541;SDS011;5827;49.482;7.716;2023-04-01T04:30:53;6.70;;;2.00;;
11541;SDS011;5827;49.482;7.716;2023-04-01T04:32:55;3.23;;;1.40;;
11541;SDS011;5827;49.482;7.716;2023-04-01T04:34:56;6.63;;;2.00;;
11541;SDS011;5827;49.482;7.716;2023-04-01T04:36:59;6.50;;;2.27;;
11541;SDS011;5827;49.482;7.716;2023-04-01T04:39:01;3.43;;;1.60;;
11541;SDS011;5827;49.482;7.716;2023-04-01T04:41:03;3.93;;;1.43;;
11541;SDS011;5827;49.482;7.716;2023-04-01T04:43:10;3.63;;;1.70;;
11541;SDS011;5827;49.482;7.716;2023-04-01T04:45:12;3.37;;;1.53;;
11541;SDS011;5827;49.482;7.716;2023-04-01T04:47:13;7.13;;;2.10;;
11541;SDS011;5827;49.482;7.716;2023-04-01T04:49:15;4.00;;;1.77;;
11541;SDS011;5827;49.482;7.716;2023-04-01T04:51:17;5.00;;;1.60;;
11541;SDS011;5827;49.482;7.716;2023-04-01T04:53:21;5.53;;;1.70;;
11541;SDS011;5827;49.482;7.716;2023-04-01T04:55:22;5.83;;;1.60;;
11541;SDS011;5827;49.482;7.716;2023-04-01T04:57:24;5.33;;;1.80;;
11541;SDS011;5827;49.482;7.716;2023-04-01T04:59:25;2.30;;;1.40;;
11541;SDS011;5827;49.482;7.716;2023-04-01T05:01:27;3.67;;;1.40;;
11541;SDS011;5827;49.482;7.716;2023-04-01T05:03:28;3.80;;;1.50;;
11541;SDS011;5827;49.482;7.716;2023-04-01T05:05:31;3.03;;;1.37;;
11541;SDS011;5827;49.482;7.716;2023-04-01T05:07:32;2.03;;;1.30;;
11541;SDS011;5827;49.482;7.716;2023-04-01T05:09:35;2.90;;;1.50;;
11541;SDS011;5827;49.482;7.716;2023-04-01T05:11:37;5.17;;;1.50;;
11541;SDS011;5827;49.482;7.716;2023-04-01T05:13:38;7.73;;;1.80;;
11541;SDS011;5827;49.482;7.716;2023-04-01T05:15:40;5.27;;;1.73;;
11541;SDS011;5827;49.482;7.716;2023-04-01T05:17:41;4.37;;;1.50;;
11541;SDS011;5827;49.482;7.716;2023-04-01T05:19:43;4.03;;;1.43;;
11541;SDS011;5827;49.482;7.716;2023-04-01T05:21:44;2.53;;;1.37;;
11541;SDS011;5827;49.482;7.716;2023-04-01T05:23:46;4.47;;;1.60;;
11541;SDS011;5827;49.482;7.716;2023-04-01T05:25:49;2.37;;;1.27;;
11541;SDS011;5827;49.482;7.716;2023-04-01T05:27:52;3.70;;;1.43;;
11541;SDS011;5827;49.482;7.716;2023-04-01T05:29:54;3.13;;;1.67;;
11541;SDS011;5827;49.482;7.716;2023-04-01T05:31:56;5.03;;;1.60;;
11541;SDS011;5827;49.482;7.716;2023-04-01T05:33:57;6.20;;;1.87;;
11541;SDS011;5827;49.482;7.716;2023-04-01T05:36:05;3.77;;;1.47;;
11541;SDS011;5827;49.482;7.716;2023-04-01T05:38:07;3.10;;;1.50;;
11541;SDS011;5827;49.482;7.716;2023-04-01T05:40:09;5.43;;;1.77;;
11541;SDS011;5827;49.482;7.716;2023-04-01T05:42:12;3.77;;;1.70;;
11541;SDS011;5827;49.482;7.716;2023-04-01T05:44:13;5.90;;;1.60;;
11541;SDS011;5827;49.482;7.716;2023-04-01T05:46:15;3.60;;;1.30;;
11541;SDS011;5827;49.482;7.716;2023-04-01T05:48:16;4.53;;;1.90;;
11541;SDS011;5827;49.482;7.716;2023-04-01T05:50:18;6.33;;;2.00;;
11541;SDS011;5827;49.482;7.716;2023-04-01T05:52:20;2.30;;;1.37;;
11541;SDS011;5827;49.482;7.716;2023-04-01T05:54:22;5.93;;;1.80;;
11541;SDS011;5827;49.482;7.716;2023-04-01T05:56:24;3.43;;;1.27;;
11541;SDS011;5827;49.482;7.716;2023-04-01T05:58:26;5.63;;;1.87;;
11541;SDS011;5827;49.482;7.716;2023-04-01T06:00:28;2.43;;;1.23;;
11541;SDS011;5827;49.482;7.716;2023-04-01T06:02:30;4.47;;;1.57;;
11541;SDS011;5827;49.482;7.716;2023-04-01T06:04:32;3.43;;;1.60;;
11541;SDS011;5827;49.482;7.716;2023-04-01T06:06:38;3.80;;;1.83;;
11541;SDS011;5827;49.482;7.716;2023-04-01T06:08:40;4.00;;;1.57;;
11541;SDS011;5827;49.482;7.716;2023-04-01T06:10:45;4.23;;;1.70;;
11541;SDS011;5827;49.482;7.716;2023-04-01T06:12:56;4.53;;;2.00;;
11541;SDS011;5827;49.482;7.716;2023-04-01T06:15:14;4.10;;;1.47;;
11541;SDS011;5827;49.482;7.716;2023-04-01T06:17:24;4.73;;;1.77;;
11541;SDS011;5827;49.482;7.716;2023-04-01T06:19:32;3.60;;;1.40;;
11541;SDS011;5827;49.482;7.716;2023-04-01T06:21:45;2.13;;;1.60;;
11541;SDS011;5827;49.482;7.716;2023-04-01T06:24:01;3.23;;;1.53;;
11541;SDS011;5827;49.482;7.716;2023-04-01T06:26:18;2.57;;;1.47;;
11541;SDS011;5827;49.482;7.716;2023-04-01T06:28:34;4.60;;;1.70;;
11541;SDS011;5827;49.482;7.716;2023-04-01T06:30:52;3.80;;;2.00;;
11541;SDS011;5827;49.482;7.716;2023-04-01T06:35:35;2.17;;;1.37;;
11541;SDS011;5827;49.482;7.716;2023-04-01T06:40:22;2.90;;;1.30;;
11541;SDS011;5827;49.482;7.716;2023-04-01T06:42:54;3.27;;;1.00;;
11541;SDS011;5827;49.482;7.716;2023-04-01T06:45:09;2.47;;;1.30;;
11541;SDS011;5827;49.482;7.716;2023-04-01T06:47:36;2.53;;;1.10;;
11541;SDS011;5827;49.482;7.716;2023-04-01T06:49:44;3.03;;;1.37;;
11541;SDS011;5827;49.482;7.716;2023-04-01T06:51:53;3.13;;;1.70;;
11541;SDS011;5827;49.482;7.716;2023-04-01T06:54:02;1.67;;;1.30;;
11541;SDS011;5827;49.482;7.716;2023-04-01T06:56:07;2.00;;;1.60;;
11541;SDS011;5827;49.482;7.716;2023-04-01T06:58:13;2.07;;;1.60;;
11541;SDS011;5827;49.482;7.716;2023-04-01T07:00:24;1.93;;;1.43;;
11541;SDS011;5827;49.482;7.716;2023-04-01T07:02:32;1.90;;;0.83;;
11541;SDS011;5827;49.482;7.716;2023-04-01T07:04:42;2.00;;;1.10;;
11541;SDS011;5827;49.482;7.716;2023-04-01T07:06:46;2.03;;;1.30;;
11541;SDS011;5827;49.482;7.716;2023-04-01T07:08:51;2.83;;;1.20;;
11541;SDS011;5827;49.482;7.716;2023-04-01T07:10:57;1.70;;;1.00;;
11541;SDS011;5827;49.482;7.716;2023-04-01T07:13:04;2.53;;;1.00;;
11541;SDS011;5827;49.482;7.716;2023-04-01T07:15:13;1.83;;;1.20;;
11541;SDS011;5827;49.482;7.716;2023-04-01T07:17:20;1.10;;;0.73;;
11541;SDS011;5827;49.482;7.716;2023-04-01T07:19:26;2.47;;;1.20;;
11541;SDS011;5827;49.482;7.716;2023-04-01T07:21:34;1.37;;;1.00;;
11541;SDS011;5827;49.482;7.716;2023-04-01T07:23:38;2.97;;;1.20;;
11541;SDS011;5827;49.482;7.716;2023-04-01T07:25:43;2.67;;;1.13;;
11541;SDS011;5827;49.482;7.716;2023-04-01T07:27:48;1.40;;;1.03;;
11541;SDS011;5827;49.482;7.716;2023-04-01T07:29:51;1.30;;;1.10;;
11541;SDS011;5827;49.482;7.716;2023-04-01T07:32:03;2.77;;;1.13;;
11541;SDS011;5827;49.482;7.716;2023-04-01T07:34:12;1.23;;;1.10;;
11541;SDS011;5827;49.482;7.716;2023-04-01T07:36:22;0.90;;;0.77;;
11541;SDS011;5827;49.482;7.716;2023-04-01T07:38:35;2.37;;;1.07;;
11541;SDS011;5827;49.482;7.716;2023-04-01T07:40:47;2.37;;;0.93;;
11541;SDS011;5827;49.482;7.716;2023-04-01T07:43:02;2.07;;;1.37;;
11541;SDS011;5827;49.482;7.716;2023-04-01T07:45:17;1.73;;;1.30;;
11541;SDS011;5827;49.482;7.716;2023-04-01T07:47:32;1.97;;;1.00;;
11541;SDS011;5827;49.482;7.716;2023-04-01T07:49:44;1.63;;;0.97;;
11541;SDS011;5827;49.482;7.716;2023-04-01T07:51:58;2.17;;;0.90;;
11541;SDS011;5827;49.482;7.716;2023-04-01T07:54:06;1.90;;;0.80;;
11541;SDS011;5827;49.482;7.716;2023-04-01T07:56:15;0.87;;;0.60;;
11541;SDS011;5827;49.482;7.716;2023-04-01T07:58:22;2.33;;;0.90;;
11541;SDS011;5827;49.482;7.716;2023-04-01T08:00:33;1.13;;;0.90;;
11541;SDS011;5827;49.482;7.716;2023-04-01T08:02:47;0.77;;;0.77;;
11541;SDS011;5827;49.482;7.716;2023-04-01T08:05:04;1.13;;;0.80;;
11541;SDS011;5827;49.482;7.716;2023-04-01T08:07:17;1.77;;;1.07;;
11541;SDS011;5827;49.482;7.716;2023-04-01T08:09:26;2.20;;;0.80;;
11541;SDS011;5827;49.482;7.716;2023-04-01T08:11:43;1.00;;;0.70;;
11541;SDS011;5827;49.482;7.716;2023-04-01T08:13:57;1.53;;;0.77;;
11541;SDS011;5827;49.482;7.716;2023-04-01T08:16:06;0.93;;;0.67;;
11541;SDS011;5827;49.482;7.716;2023-04-01T08:18:15;2.60;;;0.80;;
11541;SDS011;5827;49.482;7.716;2023-04-01T08:20:26;1.13;;;0.87;;
11541;SDS011;5827;49.482;7.716;2023-04-01T08:22:35;1.27;;;0.70;;
11541;SDS011;5827;49.482;7.716;2023-04-01T08:24:42;2.40;;;1.20;;
11541;SDS011;5827;49.482;7.716;2023-04-01T08:26:45;0.93;;;0.93;;
11541;SDS011;5827;49.482;7.716;2023-04-01T08:28:54;0.87;;;0.73;;
11541;SDS011;5827;49.482;7.716;2023-04-01T08:31:00;2.10;;;0.90;;
11541;SDS011;5827;49.482;7.716;2023-04-01T08:33:06;0.73;;;0.70;;
11541;SDS011;5827;49.482;7.716;2023-04-01T08:35:14;1.53;;;0.80;;
11541;SDS011;5827;49.482;7.716;2023-04-01T08:37:26;1.43;;;1.00;;
11541;SDS011;5827;49.482;7.716;2023-04-01T08:39:35;1.63;;;0.60;;
11541;SDS011;5827;49.482;7.716;2023-04-01T08:44:24;1.17;;;0.63;;
11541;SDS011;5827;49.482;7.716;2023-04-01T08:46:44;0.60;;;0.60;;
11541;SDS011;5827;49.482;7.716;2023-04-01T08:49:02;0.90;;;0.60;;
11541;SDS011;5827;49.482;7.716;2023-04-01T08:54:19;1.53;;;0.60;;
11541;SDS011;5827;49.482;7.716;2023-04-01T08:56:49;0.50;;;0.50;;
11541;SDS011;5827;49.482;7.716;2023-04-01T08:59:01;0.60;;;0.60;;
11541;SDS011;5827;49.482;7.716;2023-04-01T09:01:26;1.13;;;0.70;;
11541;SDS011;5827;49.482;7.716;2023-04-01T09:03:58;0.60;;;0.50;;
11541;SDS011;5827;49.482;7.716;2023-04-01T09:06:25;0.60;;;0.60;;
11541;SDS011;5827;49.482;7.716;2023-04-01T09:08:36;1.17;;;0.60;;
11541;SDS011;5827;49.482;7.716;2023-04-01T09:10:57;0.40;;;0.40;;
11541;SDS011;5827;49.482;7.716;2023-04-01T09:18:22;0.57;;;0.50;;
11541;SDS011;5827;49.482;7.716;2023-04-01T09:20:56;0.67;;;0.67;;
11541;SDS011;5827;49.482;7.716;2023-04-01T09:23:13;1.23;;;0.90;;
11541;SDS011;5827;49.482;7.716;2023-04-01T09:25:32;0.90;;;0.73;;
11541;SDS011;5827;49.482;7.716;2023-04-01T09:27:45;2.07;;;1.00;;
11541;SDS011;5827;49.482;7.716;2023-04-01T09:30:05;1.53;;;1.00;;
11541;SDS011;5827;49.482;7.716;2023-04-01T09:32:30;1.27;;;1.17;;
11541;SDS011;5827;49.482;7.716;2023-04-01T09:34:51;1.10;;;1.10;;
11541;SDS011;5827;49.482;7.716;2023-04-01T09:36:57;1.43;;;0.90;;
11541;SDS011;5827;49.482;7.716;2023-04-01T09:39:25;1.17;;;0.80;;
11541;SDS011;5827;49.482;7.716;2023-04-01T09:41:36;0.80;;;0.77;;
11541;SDS011;5827;49.482;7.716;2023-04-01T09:43:57;1.23;;;0.80;;
11541;SDS011;5827;49.482;7.716;2023-04-01T09:46:10;1.27;;;0.70;;
11541;SDS011;5827;49.482;7.716;2023-04-01T09:48:21;1.53;;;0.70;;
11541;SDS011;5827;49.482;7.716;2023-04-01T09:50:35;0.60;;;0.60;;
11541;SDS011;5827;49.482;7.716;2023-04-01T09:52:47;1.47;;;1.00;;
11541;SDS011;5827;49.482;7.716;2023-04-01T09:54:58;1.60;;;1.20;;
11541;SDS011;5827;49.482;7.716;2023-04-01T09:59:51;0.93;;;0.93;;
11541;SDS011;5827;49.482;7.716;2023-04-01T10:02:31;1.70;;;1.20;;
11541;SDS011;5827;49.482;7.716;2023-04-01T10:07:51;1.30;;;1.20;;
11541;SDS011;5827;49.482;7.716;2023-04-01T10:10:28;1.57;;;0.87;;
11541;SDS011;5827;49.482;7.716;2023-04-01T10:12:48;0.63;;;0.63;;
11541;SDS011;5827;49.482;7.716;2023-04-01T10:15:26;0.97;;;0.97;;
11541;SDS011;5827;49.482;7.716;2023-04-01T10:17:53;1.00;;;0.80;;
11541;SDS011;5827;49.482;7.716;2023-04-01T10:20:18;0.87;;;0.60;;
11541;SDS011;5827;49.482;7.716;2023-04-01T10:25:18;1.17;;;0.97;;
11541;SDS011;5827;49.482;7.716;2023-04-01T10:30:23;0.73;;;0.50;;
11541;SDS011;5827;49.482;7.716;2023-04-01T10:35:52;0.80;;;0.80;;
11541;SDS011;5827;49.482;7.716;2023-04-01T10:38:31;1.30;;;0.60;;
11541;SDS011;5827;49.482;7.716;2023-04-01T10:43:39;1.10;;;1.07;;
11541;SDS011;5827;49.482;7.716;2023-04-01T10:48:48;0.77;;;0.67;;
11541;SDS011;5827;49.482;7.716;2023-04-01T10:51:16;0.60;;;0.60;;
11541;SDS011;5827;49.482;7.716;2023-04-01T10:53:31;0.80;;;0.80;;
11541;SDS011;5827;49.482;7.716;2023-04-01T10:55:47;1.03;;;1.03;;
11541;SDS011;5827;49.482;7.716;2023-04-01T10:58:20;0.93;;;0.90;;
11541;SDS011;5827;49.482;7.716;2023-04-01T11:00:59;1.10;;;1.00;;
11541;SDS011;5827;49.482;7.716;2023-04-01T11:08:53;2.13;;;0.90;;
11541;SDS011;5827;49.482;7.716;2023-04-01T11:19:30;1.40;;;1.30;;
11541;SDS011;5827;49.482;7.716;2023-04-01T11:22:24;1.30;;;1.17;;
11541;SDS011;5827;49.482;7.716;2023-04-01T11:24:50;1.30;;;1.20;;
11541;SDS011;5827;49.482;7.716;2023-04-01T11:27:03;1.63;;;0.83;;
11541;SDS011;5827;49.482;7.716;2023-04-01T11:29:24;0.80;;;0.63;;
11541;SDS011;5827;49.482;7.716;2023-04-01T11:31:58;1.00;;;1.00;;
11541;SDS011;5827;49.482;7.716;2023-04-01T11:34:12;0.57;;;0.57;;
11541;SDS011;5827;49.482;7.716;2023-04-01T11:36:25;0.77;;;0.60;;
11541;SDS011;5827;49.482;7.716;2023-04-01T11:38:45;1.23;;;0.60;;
11541;SDS011;5827;49.482;7.716;2023-04-01T11:41:01;0.70;;;0.70;;
11541;SDS011;5827;49.482;7.716;2023-04-01T11:43:13;0.83;;;0.83;;
11541;SDS011;5827;49.482;7.716;2023-04-01T11:45:24;0.70;;;0.70;;
11541;SDS011;5827;49.482;7.716;2023-04-01T11:50:11;1.00;;;0.90;;
11541;SDS011;5827;49.482;7.716;2023-04-01T11:52:21;2.00;;;0.90;;
11541;SDS011;5827;49.482;7.716;2023-04-01T11:54:35;0.80;;;0.80;;
11541;SDS011;5827;49.482;7.716;2023-04-01T11:56:56;1.07;;;1.00;;
11541;SDS011;5827;49.482;7.716;2023-04-01T11:59:14;1.43;;;0.97;;
11541;SDS011;5827;49.482;7.716;2023-04-01T12:01:49;1.07;;;0.70;;
11541;SDS011;5827;49.482;7.716;2023-04-01T12:04:05;0.67;;;0.67;;
11541;SDS011;5827;49.482;7.716;2023-04-01T12:06:25;1.37;;;0.50;;
11541;SDS011;5827;49.482;7.716;2023-04-01T12:08:38;1.10;;;0.90;;
11541;SDS011;5827;49.482;7.716;2023-04-01T12:10:46;1.57;;;1.47;;
11541;SDS011;5827;49.482;7.716;2023-04-01T12:13:00;1.00;;;0.90;;
11541;SDS011;5827;49.482;7.716;2023-04-01T12:15:13;2.77;;;1.47;;
11541;SDS011;5827;49.482;7.716;2023-04-01T12:17:26;2.10;;;1.90;;
11541;SDS011;5827;49.482;7.716;2023-04-01T12:19:35;1.17;;;1.07;;
11541;SDS011;5827;49.482;7.716;2023-04-01T12:21:45;3.67;;;2.20;;
11541;SDS011;5827;49.482;7.716;2023-04-01T12:24:22;3.17;;;1.77;;
11541;SDS011;5827;49.482;7.716;2023-04-01T12:29:21;1.90;;;1.20;;
11541;SDS011;5827;49.482;7.716;2023-04-01T12:31:47;1.20;;;1.10;;
11541;SDS011;5827;49.482;7.716;2023-04-01T12:34:05;1.10;;;0.90;;
11541;SDS011;5827;49.482;7.716;2023-04-01T12:36:26;1.30;;;1.20;;
11541;SDS011;5827;49.482;7.716;2023-04-01T12:38:43;2.23;;;1.20;;
11541;SDS011;5827;49.482;7.716;2023-04-01T12:43:32;1.30;;;1.20;;
11541;SDS011;5827;49.482;7.716;2023-04-01T12:45:56;1.87;;;1.30;;
11541;SDS011;5827;49.482;7.716;2023-04-01T12:51:20;1.70;;;1.30;;
11541;SDS011;5827;49.482;7.716;2023-04-01T12:53:35;1.53;;;1.00;;
11541;SDS011;5827;49.482;7.716;2023-04-01T12:55:48;1.50;;;0.70;;
11541;SDS011;5827;49.482;7.716;2023-04-01T12:57:57;0.70;;;0.70;;
11541;SDS011;5827;49.482;7.716;2023-04-01T13:00:12;1.73;;;0.90;;
11541;SDS011;5827;49.482;7.716;2023-04-01T13:02:34;2.17;;;1.97;;
11541;SDS011;5827;49.482;7.716;2023-04-01T13:07:22;1.47;;;1.37;;
11541;SDS011;5827;49.482;7.716;2023-04-01T13:09:33;1.50;;;1.40;;
11541;SDS011;5827;49.482;7.716;2023-04-01T13:11:46;3.60;;;1.33;;
11541;SDS011;5827;49.482;7.716;2023-04-01T13:16:20;3.70;;;2.67;;
11541;SDS011;5827;49.482;7.716;2023-04-01T13:18:30;2.57;;;2.20;;
11541;SDS011;5827;49.482;7.716;2023-04-01T13:20:43;2.50;;;2.30;;
11541;SDS011;5827;49.482;7.716;2023-04-01T13:22:51;1.70;;;1.57;;
11541;SDS011;5827;49.482;7.716;2023-04-01T13:25:01;1.53;;;1.30;;
11541;SDS011;5827;49.482;7.716;2023-04-01T13:27:14;1.90;;;1.60;;
11541;SDS011;5827;49.482;7.716;2023-04-01T13:29:19;2.20;;;2.00;;
11541;SDS011;5827;49.482;7.716;2023-04-01T13:31:29;3.07;;;1.40;;
11541;SDS011;5827;49.482;7.716;2023-04-01T13:34:00;1.40;;;1.30;;
11541;SDS011;5827;49.482;7.716;2023-04-01T13:36:15;1.73;;;1.40;;
11541;SDS011;5827;49.482;7.716;2023-04-01T13:38:39;2.70;;;2.03;;
11541;SDS011;5827;49.482;7.716;2023-04-01T13:40:53;9.60;;;6.37;;
11541;SDS011;5827;49.482;7.716;2023-04-01T13:43:02;3.17;;;2.17;;
11541;SDS011;5827;49.482;7.716;2023-04-01T13:45:10;6.90;;;5.43;;
11541;SDS011;5827;49.482;7.716;2023-04-01T13:47:30;4.23;;;3.27;;
11541;SDS011;5827;49.482;7.716;2023-04-01T13:52:45;3.73;;;3.40;;
11541;SDS011;5827;49.482;7.716;2023-04-01T13:55:22;3.27;;;2.80;;
11541;SDS011;5827;49.482;7.716;2023-04-01T13:57:38;4.40;;;3.73;;
11541;SDS011;5827;49.482;7.716;2023-04-01T13:59:58;4.57;;;2.93;;
11541;SDS011;5827;49.482;7.716;2023-04-01T14:02:14;5.30;;;4.00;;
11541;SDS011;5827;49.482;7.716;2023-04-01T14:04:35;1.90;;;1.70;;
11541;SDS011;5827;49.482;7.716;2023-04-01T14:06:58;6.70;;;4.00;;
11541;SDS011;5827;49.482;7.716;2023-04-01T14:11:34;3.23;;;2.53;;
11541;SDS011;5827;49.482;7.716;2023-04-01T14:13:44;2.73;;;1.87;;
11541;SDS011;5827;49.482;7.716;2023-04-01T14:15:58;0.93;;;0.93;;
11541;SDS011;5827;49.482;7.716;2023-04-01T14:18:16;1.67;;;1.37;;
11541;SDS011;5827;49.482;7.716;2023-04-01T14:20:33;1.67;;;1.50;;
11541;SDS011;5827;49.482;7.716;2023-04-01T14:22:42;2.30;;;1.33;;
11541;SDS011;5827;49.482;7.716;2023-04-01T14:25:03;1.27;;;1.17;;
11541;SDS011;5827;49.482;7.716;2023-04-01T14:27:29;1.40;;;1.00;;
11541;SDS011;5827;49.482;7.716;2023-04-01T14:29:43;3.23;;;1.60;;
11541;SDS011;5827;49.482;7.716;2023-04-01T14:31:59;1.10;;;1.00;;
11541;SDS011;5827;49.482;7.716;2023-04-01T14:34:11;2.90;;;1.13;;